createdAt,value
2017-07-29T08:19:36.143Z,52.00
2017-07-29T08:22:40.111Z,51.60
2017-07-29T08:25:43.848Z,51.40
2017-07-29T08:28:50.773Z,49.60
2017-07-29T08:35:23.047Z,50.00
2017-07-29T08:38:28.088Z,51.20
2017-07-29T08:41:31.908Z,51.70
2017-07-29T08:44:34.549Z,51.90
2017-07-29T08:47:37.375Z,52.10
2017-07-29T08:50:40.009Z,52.40
2017-07-29T08:53:43.544Z,52.20
2017-07-29T08:56:46.217Z,53.10
2017-07-29T08:59:49.024Z,53.40
2017-07-29T09:02:51.493Z,53.40
2017-07-29T09:05:57.851Z,52.10
2017-07-29T09:09:00.522Z,52.30
2017-07-29T09:12:03.328Z,51.60
2017-07-29T09:15:05.969Z,51.50
2017-07-29T09:18:08.783Z,51.20
2017-07-29T09:21:11.359Z,51.80
2017-07-29T09:24:14.141Z,52.10
2017-07-29T09:27:16.809Z,51.30
2017-07-29T09:30:19.429Z,52.20
2017-07-29T09:36:40.306Z,51.60
2017-07-29T09:39:42.919Z,51.30
2017-07-29T09:42:45.676Z,51.00
2017-07-29T09:45:48.287Z,51.20
2017-07-29T09:48:51.161Z,51.30
2017-07-29T09:51:53.785Z,52.70
2017-07-29T09:54:56.627Z,51.90
2017-07-29T09:57:59.302Z,51.30
2017-07-29T10:01:02.081Z,52.20
2017-07-29T10:04:04.711Z,52.60
2017-07-29T10:07:07.542Z,51.90
2017-07-29T10:10:10.186Z,51.20
2017-07-29T10:13:13.016Z,51.20
2017-07-29T10:16:15.905Z,51.60
2017-07-29T10:19:18.549Z,51.00
2017-07-29T10:22:21.395Z,51.90
2017-07-29T10:25:24.045Z,52.00
2017-07-29T10:28:26.823Z,51.80
2017-07-29T10:31:30.163Z,51.70
2017-07-29T10:34:33.148Z,52.10
2017-07-29T10:37:36.032Z,52.40
2017-07-29T10:40:38.657Z,51.10
2017-07-29T10:43:43.216Z,51.40
2017-07-29T10:46:51.802Z,51.10
2017-07-29T10:49:55.424Z,51.30
2017-07-29T10:52:58.046Z,51.20
2017-07-29T10:56:00.880Z,51.90
2017-07-29T10:59:04.296Z,51.00
2017-07-29T11:02:07.083Z,51.00
2017-07-29T11:05:09.700Z,51.00
2017-07-29T11:08:12.332Z,50.60
2017-07-29T11:11:14.944Z,51.50
2017-07-29T11:14:17.672Z,50.40
2017-07-29T11:17:20.369Z,49.70
2017-07-29T11:20:22.754Z,49.90
2017-07-29T11:23:25.954Z,49.70
2017-07-29T11:26:29.696Z,49.90
2017-07-29T11:29:33.652Z,50.70
2017-07-29T11:32:37.333Z,50.30
2017-07-29T11:35:40.871Z,50.70
2017-07-29T11:38:44.614Z,49.00
2017-07-29T11:41:49.181Z,49.50
2017-07-29T11:44:52.789Z,49.50
2017-07-29T11:47:55.983Z,49.20
2017-07-29T11:50:59.075Z,49.40
2017-07-29T11:54:02.881Z,48.70
2017-07-29T11:57:06.382Z,48.90
2017-07-29T12:00:11.557Z,50.90
2017-07-29T12:03:14.814Z,50.30
2017-07-29T12:06:18.520Z,48.00
2017-07-29T12:09:22.790Z,49.00
2017-07-29T12:12:26.136Z,49.50
2017-07-29T12:15:29.534Z,48.30
2017-07-29T12:18:32.624Z,48.10
2017-07-29T12:21:36.225Z,48.70
2017-07-29T12:24:39.623Z,49.30
2017-07-29T12:27:43.225Z,48.40
2017-07-29T12:30:47.477Z,49.50
2017-07-29T12:33:50.942Z,49.40
2017-07-29T12:36:54.152Z,48.50
2017-07-29T12:39:57.434Z,47.10
2017-07-29T12:43:00.818Z,47.70
2017-07-29T12:46:04.329Z,47.20
2017-07-29T12:49:08.920Z,46.30
2017-07-29T12:52:13.614Z,48.60
2017-07-29T12:55:16.826Z,48.50
2017-07-29T12:58:20.739Z,46.90
2017-07-29T13:01:23.776Z,48.20
2017-07-29T13:04:27.071Z,47.80
2017-07-29T13:07:31.189Z,47.40
2017-07-29T13:10:34.826Z,48.60
2017-07-29T13:13:38.185Z,48.50
2017-07-29T13:16:41.830Z,47.40
2017-07-29T13:19:46.135Z,47.70
2017-07-29T13:22:50.718Z,47.80
2017-07-29T13:25:54.561Z,47.60
2017-07-29T13:28:57.692Z,47.60
2017-07-29T13:32:00.851Z,46.80
2017-07-29T13:35:04.318Z,47.60
2017-07-29T13:38:07.382Z,47.00
2017-07-29T13:41:10.713Z,47.60
2017-07-29T13:44:14.023Z,47.80
2017-07-29T13:47:17.096Z,47.30
2017-07-29T13:50:20.801Z,47.90
2017-07-29T13:53:24.290Z,48.10
2017-07-29T13:56:27.665Z,48.10
2017-07-29T13:59:30.981Z,47.70
2017-07-29T14:02:34.172Z,46.80
2017-07-29T14:05:37.277Z,47.60
2017-07-29T14:08:40.746Z,47.20
2017-07-29T14:11:43.868Z,46.90
2017-07-29T14:14:49.574Z,46.90
2017-07-29T14:17:53.533Z,46.90
2017-07-29T14:20:56.866Z,46.40
2017-07-29T14:24:00.434Z,47.00
2017-07-29T14:27:09.700Z,47.60
2017-07-29T14:30:13.472Z,47.30
2017-07-29T14:33:17.177Z,45.40
2017-07-29T14:36:20.412Z,46.60
2017-07-29T14:39:23.440Z,46.80
2017-07-29T14:42:26.962Z,45.40
2017-07-29T14:45:31.061Z,46.90
2017-07-29T14:48:35.225Z,46.40
2017-07-29T14:51:38.485Z,46.00
2017-07-29T14:54:41.911Z,47.10
2017-07-29T14:57:46.312Z,47.40
2017-07-29T15:00:49.153Z,47.40
2017-07-29T15:03:52.249Z,46.10
2017-07-29T15:06:56.599Z,47.70
2017-07-29T15:09:59.997Z,47.50
2017-07-29T15:13:04.827Z,47.20
2017-07-29T15:16:08.449Z,46.10
2017-07-29T15:19:11.930Z,47.00
2017-07-29T15:22:15.959Z,47.00
2017-07-29T15:25:18.964Z,46.00
2017-07-29T15:28:22.738Z,45.10
2017-07-29T15:31:25.923Z,46.70
2017-07-29T15:34:29.430Z,46.30
2017-07-29T15:37:32.881Z,46.90
2017-07-29T15:40:35.856Z,47.30
2017-07-29T15:43:39.728Z,47.40
2017-07-29T15:46:43.227Z,47.50
2017-07-29T15:49:46.522Z,46.00
2017-07-29T15:52:49.946Z,46.90
2017-07-29T15:55:53.117Z,47.30
2017-07-29T15:58:56.662Z,47.40
2017-07-29T16:01:59.857Z,47.80
2017-07-29T16:05:03.186Z,48.60
2017-07-29T16:08:06.702Z,47.50
2017-07-29T16:11:09.899Z,48.20
2017-07-29T16:14:13.836Z,48.70
2017-07-29T16:17:16.998Z,47.90
2017-07-29T16:20:21.869Z,49.40
2017-07-29T16:23:25.232Z,49.30
2017-07-29T16:26:28.525Z,48.50
2017-07-29T16:29:32.945Z,49.50
2017-07-29T16:32:36.140Z,47.90
2017-07-29T16:35:39.213Z,48.10
2017-07-29T16:38:42.929Z,47.50
2017-07-29T16:41:46.746Z,47.60
2017-07-29T16:44:50.036Z,48.10
2017-07-29T16:47:53.246Z,48.30
2017-07-29T16:50:56.648Z,48.50
2017-07-29T16:54:01.037Z,49.20
2017-07-29T16:57:04.337Z,49.10
2017-07-29T17:00:07.349Z,48.50
2017-07-29T17:03:10.812Z,48.80
2017-07-29T17:06:14.117Z,49.10
2017-07-29T17:09:17.330Z,48.60
2017-07-29T17:12:20.443Z,49.20
2017-07-29T17:15:23.961Z,49.80
2017-07-29T17:18:27.308Z,49.50
2017-07-29T17:21:31.933Z,50.30
2017-07-29T17:24:35.435Z,50.90
2017-07-29T17:27:38.746Z,50.60
2017-07-29T17:30:42.129Z,51.00
2017-07-29T17:33:45.540Z,51.00
2017-07-29T17:36:48.617Z,51.20
2017-07-29T17:39:52.237Z,50.70
2017-07-29T17:42:55.433Z,51.20
2017-07-29T17:45:58.910Z,51.30
2017-07-29T17:49:03.514Z,51.70
2017-07-29T17:52:06.799Z,51.50
2017-07-29T17:55:09.483Z,52.00
2017-07-29T17:58:13.120Z,52.30
2017-07-29T18:01:16.508Z,52.70
2017-07-29T18:04:19.328Z,53.50
2017-07-29T18:07:22.314Z,54.20
2017-07-29T18:10:25.893Z,53.10
2017-07-29T18:13:29.079Z,53.70
2017-07-29T18:16:32.710Z,53.10
2017-07-29T18:19:35.842Z,53.90
2017-07-29T18:22:38.523Z,54.70
2017-07-29T18:25:41.689Z,55.00
2017-07-29T18:28:44.349Z,54.90
2017-07-29T18:31:48.898Z,56.70
2017-07-29T18:34:51.746Z,56.60
2017-07-29T18:37:55.136Z,57.20
2017-07-29T18:40:58.431Z,57.20
2017-07-29T18:44:01.852Z,57.50
2017-07-29T18:47:05.347Z,57.80
2017-07-29T18:50:10.204Z,58.30
2017-07-29T18:53:14.892Z,58.20
2017-07-29T18:56:18.237Z,57.80
2017-07-29T18:59:22.981Z,58.30
2017-07-29T19:02:26.560Z,58.50
2017-07-29T19:05:30.343Z,59.00
2017-07-29T19:08:34.488Z,59.90
2017-07-29T19:11:38.347Z,59.90
2017-07-29T19:18:06.052Z,60.30
2017-07-29T19:24:38.354Z,60.80
2017-07-29T19:27:41.640Z,60.90
2017-07-29T19:30:45.632Z,61.10
2017-07-29T19:33:49.492Z,61.90
2017-07-29T19:36:55.222Z,62.40
2017-07-29T19:40:02.071Z,63.30
2017-07-29T19:43:15.711Z,62.30
2017-07-29T19:46:19.282Z,62.30
2017-07-29T19:49:27.771Z,62.90
2017-07-29T19:52:32.229Z,63.60
2017-07-29T19:59:01.245Z,64.50
2017-07-29T20:02:07.941Z,65.50
2017-07-29T20:05:13.444Z,65.50
2017-07-29T20:08:17.941Z,64.70
2017-07-29T20:11:30.231Z,64.50
2017-07-29T20:56:16.600Z,68.10
2017-07-29T20:59:19.896Z,68.30
2017-07-29T21:05:56.866Z,68.30
2017-07-29T21:09:01.223Z,68.60
2017-07-29T21:12:06.529Z,68.50
2017-07-29T21:18:40.871Z,68.70
2017-07-29T21:21:50.002Z,68.80
2017-07-29T21:24:53.052Z,69.10
2017-07-29T21:27:57.619Z,69.80
2017-07-29T21:31:01.396Z,69.80
2017-07-29T21:37:40.377Z,70.50
2017-07-29T21:40:47.560Z,70.40
2017-07-29T21:43:53.154Z,70.10
2017-07-29T21:50:19.667Z,71.60
2017-07-29T21:53:23.938Z,71.10
2017-07-29T21:56:27.633Z,71.20
2017-07-29T21:59:38.947Z,71.10
2017-07-29T22:02:42.006Z,71.60
2017-07-29T22:05:45.966Z,72.00
2017-07-29T22:08:49.414Z,71.90
2017-07-29T22:11:54.550Z,72.10
2017-07-29T22:15:01.880Z,72.20
2017-07-29T22:18:05.397Z,71.90
2017-07-29T22:21:08.731Z,71.80
2017-07-29T22:24:15.982Z,71.90
2017-07-29T22:27:19.577Z,71.80
2017-07-29T22:30:23.905Z,72.20
2017-07-29T22:33:27.714Z,72.20
2017-07-29T22:36:31.251Z,72.20
2017-07-29T22:39:35.019Z,72.30
2017-07-29T22:42:38.518Z,72.20
2017-07-29T22:45:41.661Z,72.20
2017-07-29T22:48:45.477Z,72.20
2017-07-29T22:51:50.660Z,72.50
2017-07-29T22:54:55.012Z,72.30
2017-07-29T22:57:58.497Z,72.30
2017-07-29T23:01:02.120Z,72.20
2017-07-29T23:04:06.091Z,72.50
2017-07-29T23:07:09.283Z,72.50
2017-07-29T23:10:14.216Z,72.50
2017-07-29T23:13:17.511Z,72.50
2017-07-29T23:16:22.958Z,72.50
2017-07-29T23:19:26.666Z,72.50
2017-07-29T23:22:30.619Z,72.50
2017-07-29T23:25:34.229Z,72.40
2017-07-29T23:28:38.697Z,73.50
2017-07-29T23:31:42.608Z,72.80
2017-07-29T23:34:45.928Z,73.10
2017-07-29T23:37:50.017Z,73.30
2017-07-29T23:40:53.392Z,73.30
2017-07-29T23:43:56.696Z,73.40
2017-07-29T23:47:00.542Z,73.60
2017-07-29T23:50:05.491Z,73.30
2017-07-29T23:53:11.716Z,73.40
2017-07-29T23:56:16.300Z,73.60
2017-07-29T23:59:20.057Z,73.50
